<?xml version="1.0" encoding="UTF-8" standalone="no" ?>
<gpx xmlns="http://www.topografix.com/GPX/1/1" xmlns:xsi="http://www.w3.org/2001/XMLSchema-instance" xsi:schemaLocation="http://www.topografix.com/GPX/1/1 http://www.topografix.com/GPX/1/1/gpx.xsd" version="1.1" creator="VisuGPX - https://www.visugpx.com">
  <metadata>
    <name>Circuit de Lucey et Jongieux</name>
  </metadata>
  <trk>
    <name><![CDATA[Circuit de Lucey et Jongieux]]></name>
    <trkseg>
      <trkpt lat="45.75274" lon="5.78853">
        <ele>243</ele>
        <time>2018-05-06T18:15:02+02:00</time>
      </trkpt>
      <trkpt lat="45.75269" lon="5.78864">
        <ele>244</ele>
        <time>2018-05-06T18:15:07+02:00</time>
      </trkpt>
      <trkpt lat="45.75273" lon="5.78882">
        <ele>247</ele>
        <time>2018-05-06T18:15:12+02:00</time>
      </trkpt>
      <trkpt lat="45.75244" lon="5.78925">
        <ele>249</ele>
        <time>2018-05-06T18:15:17+02:00</time>
      </trkpt>
      <trkpt lat="45.7523" lon="5.78972">
        <ele>257</ele>
        <time>2018-05-06T18:15:22+02:00</time>
      </trkpt>
      <trkpt lat="45.75219" lon="5.78988">
        <ele>259</ele>
        <time>2018-05-06T18:15:27+02:00</time>
      </trkpt>
      <trkpt lat="45.75216" lon="5.79007">
        <ele>263</ele>
        <time>2018-05-06T18:15:32+02:00</time>
      </trkpt>
      <trkpt lat="45.75231" lon="5.79016">
        <ele>267</ele>
        <time>2018-05-06T18:15:37+02:00</time>
      </trkpt>
      <trkpt lat="45.75227" lon="5.79037">
        <ele>272</ele>
        <time>2018-05-06T18:15:42+02:00</time>
      </trkpt>
      <trkpt lat="45.75231" lon="5.79051">
        <ele>277</ele>
        <time>2018-05-06T18:15:47+02:00</time>
      </trkpt>
      <trkpt lat="45.7523" lon="5.79079">
        <ele>285</ele>
        <time>2018-05-06T18:15:52+02:00</time>
      </trkpt>
      <trkpt lat="45.75225" lon="5.79092">
        <ele>287</ele>
        <time>2018-05-06T18:15:57+02:00</time>
      </trkpt>
      <trkpt lat="45.75219" lon="5.79107">
        <ele>290</ele>
        <time>2018-05-06T18:16:02+02:00</time>
      </trkpt>
      <trkpt lat="45.75215" lon="5.79114">
        <ele>291</ele>
        <time>2018-05-06T18:16:07+02:00</time>
      </trkpt>
      <trkpt lat="45.75217" lon="5.79152">
        <ele>298</ele>
        <time>2018-05-06T18:16:12+02:00</time>
      </trkpt>
      <trkpt lat="45.75213" lon="5.79179">
        <ele>301</ele>
        <time>2018-05-06T18:16:17+02:00</time>
      </trkpt>
      <trkpt lat="45.75223" lon="5.7921">
        <ele>300</ele>
        <time>2018-05-06T18:16:22+02:00</time>
      </trkpt>
      <trkpt lat="45.75231" lon="5.79243">
        <ele>300</ele>
        <time>2018-05-06T18:16:27+02:00</time>
      </trkpt>
      <trkpt lat="45.75213" lon="5.79244">
        <ele>302</ele>
        <time>2018-05-06T18:16:32+02:00</time>
      </trkpt>
      <trkpt lat="45.75207" lon="5.79257">
        <ele>303</ele>
        <time>2018-05-06T18:16:37+02:00</time>
      </trkpt>
      <trkpt lat="45.752" lon="5.7927">
        <ele>304</ele>
        <time>2018-05-06T18:16:42+02:00</time>
      </trkpt>
      <trkpt lat="45.75199" lon="5.79285">
        <ele>304</ele>
        <time>2018-05-06T18:16:47+02:00</time>
      </trkpt>
      <trkpt lat="45.75197" lon="5.793">
        <ele>305</ele>
        <time>2018-05-06T18:16:52+02:00</time>
      </trkpt>
      <trkpt lat="45.75191" lon="5.7931">
        <ele>306</ele>
        <time>2018-05-06T18:16:57+02:00</time>
      </trkpt>
      <trkpt lat="45.75175" lon="5.79327">
        <ele>309</ele>
        <time>2018-05-06T18:17:02+02:00</time>
      </trkpt>
      <trkpt lat="45.75162" lon="5.7933">
        <ele>311</ele>
        <time>2018-05-06T18:17:07+02:00</time>
      </trkpt>
      <trkpt lat="45.75143" lon="5.79343">
        <ele>312</ele>
        <time>2018-05-06T18:17:12+02:00</time>
      </trkpt>
      <trkpt lat="45.75178" lon="5.79379">
        <ele>315</ele>
        <time>2018-05-06T18:17:17+02:00</time>
      </trkpt>
      <trkpt lat="45.75223" lon="5.79413">
        <ele>315</ele>
        <time>2018-05-06T18:17:22+02:00</time>
      </trkpt>
      <trkpt lat="45.75261" lon="5.79426">
        <ele>316</ele>
        <time>2018-05-06T18:17:27+02:00</time>
      </trkpt>
      <trkpt lat="45.75299" lon="5.79437">
        <ele>321</ele>
        <time>2018-05-06T18:17:32+02:00</time>
      </trkpt>
      <trkpt lat="45.7537" lon="5.79455">
        <ele>325</ele>
        <time>2018-05-06T18:17:37+02:00</time>
      </trkpt>
      <trkpt lat="45.75424" lon="5.79481">
        <ele>330</ele>
        <time>2018-05-06T18:17:42+02:00</time>
      </trkpt>
      <trkpt lat="45.7548" lon="5.79489">
        <ele>326</ele>
        <time>2018-05-06T18:17:47+02:00</time>
      </trkpt>
      <trkpt lat="45.75518" lon="5.79492">
        <ele>324</ele>
        <time>2018-05-06T18:17:52+02:00</time>
      </trkpt>
      <trkpt lat="45.75582" lon="5.79498">
        <ele>322</ele>
        <time>2018-05-06T18:17:57+02:00</time>
      </trkpt>
      <trkpt lat="45.75639" lon="5.79596">
        <ele>329</ele>
        <time>2018-05-06T18:18:02+02:00</time>
      </trkpt>
      <trkpt lat="45.75655" lon="5.79608">
        <ele>328</ele>
        <time>2018-05-06T18:18:07+02:00</time>
      </trkpt>
      <trkpt lat="45.75704" lon="5.79615">
        <ele>327</ele>
        <time>2018-05-06T18:18:12+02:00</time>
      </trkpt>
      <trkpt lat="45.75717" lon="5.79626">
        <ele>327</ele>
        <time>2018-05-06T18:18:17+02:00</time>
      </trkpt>
      <trkpt lat="45.75712" lon="5.79674">
        <ele>328</ele>
        <time>2018-05-06T18:18:22+02:00</time>
      </trkpt>
      <trkpt lat="45.7572" lon="5.79684">
        <ele>328</ele>
        <time>2018-05-06T18:18:27+02:00</time>
      </trkpt>
      <trkpt lat="45.75761" lon="5.79663">
        <ele>326</ele>
        <time>2018-05-06T18:18:32+02:00</time>
      </trkpt>
      <trkpt lat="45.75786" lon="5.7965">
        <ele>325</ele>
        <time>2018-05-06T18:18:37+02:00</time>
      </trkpt>
      <trkpt lat="45.75822" lon="5.79649">
        <ele>325</ele>
        <time>2018-05-06T18:18:42+02:00</time>
      </trkpt>
      <trkpt lat="45.75839" lon="5.79692">
        <ele>331</ele>
        <time>2018-05-06T18:18:47+02:00</time>
      </trkpt>
      <trkpt lat="45.75894" lon="5.79712">
        <ele>337</ele>
        <time>2018-05-06T18:18:52+02:00</time>
      </trkpt>
      <trkpt lat="45.75924" lon="5.79715">
        <ele>337</ele>
        <time>2018-05-06T18:18:57+02:00</time>
      </trkpt>
      <trkpt lat="45.75946" lon="5.7971">
        <ele>335</ele>
        <time>2018-05-06T18:19:02+02:00</time>
      </trkpt>
      <trkpt lat="45.75979" lon="5.79727">
        <ele>334</ele>
        <time>2018-05-06T18:19:07+02:00</time>
      </trkpt>
      <trkpt lat="45.76016" lon="5.79776">
        <ele>339</ele>
        <time>2018-05-06T18:19:12+02:00</time>
      </trkpt>
      <trkpt lat="45.76047" lon="5.79758">
        <ele>336</ele>
        <time>2018-05-06T18:19:17+02:00</time>
      </trkpt>
      <trkpt lat="45.76087" lon="5.79824">
        <ele>339</ele>
        <time>2018-05-06T18:19:22+02:00</time>
      </trkpt>
      <trkpt lat="45.76127" lon="5.79888">
        <ele>346</ele>
        <time>2018-05-06T18:19:27+02:00</time>
      </trkpt>
      <trkpt lat="45.76129" lon="5.79949">
        <ele>353</ele>
        <time>2018-05-06T18:19:32+02:00</time>
      </trkpt>
      <trkpt lat="45.76121" lon="5.79977">
        <ele>357</ele>
        <time>2018-05-06T18:19:37+02:00</time>
      </trkpt>
      <trkpt lat="45.76098" lon="5.80018">
        <ele>361</ele>
        <time>2018-05-06T18:19:42+02:00</time>
      </trkpt>
      <trkpt lat="45.76091" lon="5.80051">
        <ele>364</ele>
        <time>2018-05-06T18:19:47+02:00</time>
      </trkpt>
      <trkpt lat="45.76102" lon="5.80082">
        <ele>364</ele>
        <time>2018-05-06T18:19:52+02:00</time>
      </trkpt>
      <trkpt lat="45.76113" lon="5.80151">
        <ele>370</ele>
        <time>2018-05-06T18:19:57+02:00</time>
      </trkpt>
      <trkpt lat="45.76073" lon="5.80178">
        <ele>377</ele>
        <time>2018-05-06T18:20:02+02:00</time>
      </trkpt>
      <trkpt lat="45.76012" lon="5.80154">
        <ele>382</ele>
        <time>2018-05-06T18:20:07+02:00</time>
      </trkpt>
      <trkpt lat="45.75962" lon="5.80124">
        <ele>387</ele>
        <time>2018-05-06T18:20:12+02:00</time>
      </trkpt>
      <trkpt lat="45.75907" lon="5.80107">
        <ele>391</ele>
        <time>2018-05-06T18:20:17+02:00</time>
      </trkpt>
      <trkpt lat="45.75866" lon="5.80104">
        <ele>390</ele>
        <time>2018-05-06T18:20:22+02:00</time>
      </trkpt>
      <trkpt lat="45.75837" lon="5.80105">
        <ele>389</ele>
        <time>2018-05-06T18:20:27+02:00</time>
      </trkpt>
      <trkpt lat="45.75797" lon="5.80127">
        <ele>388</ele>
        <time>2018-05-06T18:20:32+02:00</time>
      </trkpt>
      <trkpt lat="45.75767" lon="5.8015">
        <ele>386</ele>
        <time>2018-05-06T18:20:37+02:00</time>
      </trkpt>
      <trkpt lat="45.75684" lon="5.80163">
        <ele>393</ele>
        <time>2018-05-06T18:20:42+02:00</time>
      </trkpt>
      <trkpt lat="45.75633" lon="5.80152">
        <ele>401</ele>
        <time>2018-05-06T18:20:47+02:00</time>
      </trkpt>
      <trkpt lat="45.75622" lon="5.80121">
        <ele>406</ele>
        <time>2018-05-06T18:20:52+02:00</time>
      </trkpt>
      <trkpt lat="45.75559" lon="5.80104">
        <ele>413</ele>
        <time>2018-05-06T18:20:57+02:00</time>
      </trkpt>
      <trkpt lat="45.75536" lon="5.80103">
        <ele>416</ele>
        <time>2018-05-06T18:21:02+02:00</time>
      </trkpt>
      <trkpt lat="45.75512" lon="5.80099">
        <ele>419</ele>
        <time>2018-05-06T18:21:07+02:00</time>
      </trkpt>
      <trkpt lat="45.75485" lon="5.80096">
        <ele>422</ele>
        <time>2018-05-06T18:21:12+02:00</time>
      </trkpt>
      <trkpt lat="45.75442" lon="5.80084">
        <ele>426</ele>
        <time>2018-05-06T18:21:17+02:00</time>
      </trkpt>
      <trkpt lat="45.75396" lon="5.80084">
        <ele>430</ele>
        <time>2018-05-06T18:21:22+02:00</time>
      </trkpt>
      <trkpt lat="45.75337" lon="5.80094">
        <ele>437</ele>
        <time>2018-05-06T18:21:27+02:00</time>
      </trkpt>
      <trkpt lat="45.75292" lon="5.80119">
        <ele>445</ele>
        <time>2018-05-06T18:21:32+02:00</time>
      </trkpt>
      <trkpt lat="45.75256" lon="5.80134">
        <ele>451</ele>
        <time>2018-05-06T18:21:37+02:00</time>
      </trkpt>
      <trkpt lat="45.75229" lon="5.80202">
        <ele>453</ele>
        <time>2018-05-06T18:21:42+02:00</time>
      </trkpt>
      <trkpt lat="45.75188" lon="5.80232">
        <ele>459</ele>
        <time>2018-05-06T18:21:47+02:00</time>
      </trkpt>
      <trkpt lat="45.75112" lon="5.80272">
        <ele>465</ele>
        <time>2018-05-06T18:21:52+02:00</time>
      </trkpt>
      <trkpt lat="45.75095" lon="5.80295">
        <ele>466</ele>
        <time>2018-05-06T18:21:57+02:00</time>
      </trkpt>
      <trkpt lat="45.75088" lon="5.80403">
        <ele>468</ele>
        <time>2018-05-06T18:22:02+02:00</time>
      </trkpt>
      <trkpt lat="45.75069" lon="5.80453">
        <ele>470</ele>
        <time>2018-05-06T18:22:07+02:00</time>
      </trkpt>
      <trkpt lat="45.75024" lon="5.80478">
        <ele>474</ele>
        <time>2018-05-06T18:22:12+02:00</time>
      </trkpt>
      <trkpt lat="45.74986" lon="5.80499">
        <ele>477</ele>
        <time>2018-05-06T18:22:17+02:00</time>
      </trkpt>
      <trkpt lat="45.7496" lon="5.80522">
        <ele>480</ele>
        <time>2018-05-06T18:22:22+02:00</time>
      </trkpt>
      <trkpt lat="45.74925" lon="5.80558">
        <ele>483</ele>
        <time>2018-05-06T18:22:27+02:00</time>
      </trkpt>
      <trkpt lat="45.74928" lon="5.80629">
        <ele>484</ele>
        <time>2018-05-06T18:22:32+02:00</time>
      </trkpt>
      <trkpt lat="45.74904" lon="5.80626">
        <ele>487</ele>
        <time>2018-05-06T18:22:37+02:00</time>
      </trkpt>
      <trkpt lat="45.74876" lon="5.80575">
        <ele>492</ele>
        <time>2018-05-06T18:22:42+02:00</time>
      </trkpt>
      <trkpt lat="45.74841" lon="5.80541">
        <ele>498</ele>
        <time>2018-05-06T18:22:47+02:00</time>
      </trkpt>
      <trkpt lat="45.74802" lon="5.80496">
        <ele>501</ele>
        <time>2018-05-06T18:22:52+02:00</time>
      </trkpt>
      <trkpt lat="45.74763" lon="5.80463">
        <ele>504</ele>
        <time>2018-05-06T18:22:57+02:00</time>
      </trkpt>
      <trkpt lat="45.74709" lon="5.80442">
        <ele>508</ele>
        <time>2018-05-06T18:23:02+02:00</time>
      </trkpt>
      <trkpt lat="45.74677" lon="5.80496">
        <ele>515</ele>
        <time>2018-05-06T18:23:07+02:00</time>
      </trkpt>
      <trkpt lat="45.74612" lon="5.80495">
        <ele>520</ele>
        <time>2018-05-06T18:23:12+02:00</time>
      </trkpt>
      <trkpt lat="45.74581" lon="5.80513">
        <ele>524</ele>
        <time>2018-05-06T18:23:17+02:00</time>
      </trkpt>
      <trkpt lat="45.74551" lon="5.80532">
        <ele>525</ele>
        <time>2018-05-06T18:23:22+02:00</time>
      </trkpt>
      <trkpt lat="45.745" lon="5.80579">
        <ele>527</ele>
        <time>2018-05-06T18:23:27+02:00</time>
      </trkpt>
      <trkpt lat="45.74446" lon="5.80595">
        <ele>524</ele>
        <time>2018-05-06T18:23:32+02:00</time>
      </trkpt>
      <trkpt lat="45.74417" lon="5.80618">
        <ele>523</ele>
        <time>2018-05-06T18:23:37+02:00</time>
      </trkpt>
      <trkpt lat="45.74371" lon="5.80676">
        <ele>522</ele>
        <time>2018-05-06T18:23:42+02:00</time>
      </trkpt>
      <trkpt lat="45.74328" lon="5.80676">
        <ele>519</ele>
        <time>2018-05-06T18:23:47+02:00</time>
      </trkpt>
      <trkpt lat="45.74256" lon="5.80637">
        <ele>512</ele>
        <time>2018-05-06T18:23:52+02:00</time>
      </trkpt>
      <trkpt lat="45.74202" lon="5.80603">
        <ele>503</ele>
        <time>2018-05-06T18:23:57+02:00</time>
      </trkpt>
      <trkpt lat="45.74156" lon="5.80569">
        <ele>494</ele>
        <time>2018-05-06T18:24:02+02:00</time>
      </trkpt>
      <trkpt lat="45.74128" lon="5.80569">
        <ele>491</ele>
        <time>2018-05-06T18:24:07+02:00</time>
      </trkpt>
      <trkpt lat="45.74108" lon="5.80553">
        <ele>487</ele>
        <time>2018-05-06T18:24:12+02:00</time>
      </trkpt>
      <trkpt lat="45.74087" lon="5.8054">
        <ele>483</ele>
        <time>2018-05-06T18:24:17+02:00</time>
      </trkpt>
      <trkpt lat="45.74052" lon="5.80533">
        <ele>478</ele>
        <time>2018-05-06T18:24:22+02:00</time>
      </trkpt>
      <trkpt lat="45.7402" lon="5.8054">
        <ele>477</ele>
        <time>2018-05-06T18:24:27+02:00</time>
      </trkpt>
      <trkpt lat="45.7398" lon="5.80562">
        <ele>475</ele>
        <time>2018-05-06T18:24:32+02:00</time>
      </trkpt>
      <trkpt lat="45.73959" lon="5.80569">
        <ele>473</ele>
        <time>2018-05-06T18:24:37+02:00</time>
      </trkpt>
      <trkpt lat="45.73925" lon="5.80563">
        <ele>467</ele>
        <time>2018-05-06T18:24:42+02:00</time>
      </trkpt>
      <trkpt lat="45.7389" lon="5.8058">
        <ele>466</ele>
        <time>2018-05-06T18:24:47+02:00</time>
      </trkpt>
      <trkpt lat="45.73865" lon="5.80586">
        <ele>463</ele>
        <time>2018-05-06T18:24:52+02:00</time>
      </trkpt>
      <trkpt lat="45.73839" lon="5.80599">
        <ele>462</ele>
        <time>2018-05-06T18:24:57+02:00</time>
      </trkpt>
      <trkpt lat="45.7381" lon="5.80609">
        <ele>464</ele>
        <time>2018-05-06T18:25:02+02:00</time>
      </trkpt>
      <trkpt lat="45.73771" lon="5.80617">
        <ele>467</ele>
        <time>2018-05-06T18:25:07+02:00</time>
      </trkpt>
      <trkpt lat="45.73747" lon="5.80587">
        <ele>458</ele>
        <time>2018-05-06T18:25:12+02:00</time>
      </trkpt>
      <trkpt lat="45.73729" lon="5.80569">
        <ele>451</ele>
        <time>2018-05-06T18:25:17+02:00</time>
      </trkpt>
      <trkpt lat="45.73707" lon="5.80556">
        <ele>445</ele>
        <time>2018-05-06T18:25:22+02:00</time>
      </trkpt>
      <trkpt lat="45.73648" lon="5.80614">
        <ele>459</ele>
        <time>2018-05-06T18:25:27+02:00</time>
      </trkpt>
      <trkpt lat="45.73626" lon="5.80604">
        <ele>456</ele>
        <time>2018-05-06T18:25:32+02:00</time>
      </trkpt>
      <trkpt lat="45.73616" lon="5.80577">
        <ele>447</ele>
        <time>2018-05-06T18:25:37+02:00</time>
      </trkpt>
      <trkpt lat="45.736" lon="5.8055">
        <ele>440</ele>
        <time>2018-05-06T18:25:42+02:00</time>
      </trkpt>
      <trkpt lat="45.73579" lon="5.80548">
        <ele>438</ele>
        <time>2018-05-06T18:25:47+02:00</time>
      </trkpt>
      <trkpt lat="45.73543" lon="5.80588">
        <ele>444</ele>
        <time>2018-05-06T18:25:52+02:00</time>
      </trkpt>
      <trkpt lat="45.7352" lon="5.80598">
        <ele>445</ele>
        <time>2018-05-06T18:25:57+02:00</time>
      </trkpt>
      <trkpt lat="45.73467" lon="5.80566">
        <ele>432</ele>
        <time>2018-05-06T18:26:02+02:00</time>
      </trkpt>
      <trkpt lat="45.7341" lon="5.80524">
        <ele>421</ele>
        <time>2018-05-06T18:26:07+02:00</time>
      </trkpt>
      <trkpt lat="45.73404" lon="5.80487">
        <ele>413</ele>
        <time>2018-05-06T18:26:12+02:00</time>
      </trkpt>
      <trkpt lat="45.73392" lon="5.80464">
        <ele>410</ele>
        <time>2018-05-06T18:26:17+02:00</time>
      </trkpt>
      <trkpt lat="45.73386" lon="5.8044">
        <ele>405</ele>
        <time>2018-05-06T18:26:22+02:00</time>
      </trkpt>
      <trkpt lat="45.73374" lon="5.8042">
        <ele>403</ele>
        <time>2018-05-06T18:26:27+02:00</time>
      </trkpt>
      <trkpt lat="45.73367" lon="5.80367">
        <ele>397</ele>
        <time>2018-05-06T18:26:32+02:00</time>
      </trkpt>
      <trkpt lat="45.73372" lon="5.80325">
        <ele>392</ele>
        <time>2018-05-06T18:26:37+02:00</time>
      </trkpt>
      <trkpt lat="45.73383" lon="5.80302">
        <ele>390</ele>
        <time>2018-05-06T18:26:42+02:00</time>
      </trkpt>
      <trkpt lat="45.73387" lon="5.80269">
        <ele>387</ele>
        <time>2018-05-06T18:26:47+02:00</time>
      </trkpt>
      <trkpt lat="45.73363" lon="5.80243">
        <ele>389</ele>
        <time>2018-05-06T18:26:52+02:00</time>
      </trkpt>
      <trkpt lat="45.73335" lon="5.80223">
        <ele>392</ele>
        <time>2018-05-06T18:26:57+02:00</time>
      </trkpt>
      <trkpt lat="45.73299" lon="5.80217">
        <ele>394</ele>
        <time>2018-05-06T18:27:02+02:00</time>
      </trkpt>
      <trkpt lat="45.73206" lon="5.80182">
        <ele>396</ele>
        <time>2018-05-06T18:27:07+02:00</time>
      </trkpt>
      <trkpt lat="45.73109" lon="5.80156">
        <ele>399</ele>
        <time>2018-05-06T18:27:12+02:00</time>
      </trkpt>
      <trkpt lat="45.73088" lon="5.80128">
        <ele>399</ele>
        <time>2018-05-06T18:27:17+02:00</time>
      </trkpt>
      <trkpt lat="45.73078" lon="5.80093">
        <ele>399</ele>
        <time>2018-05-06T18:27:22+02:00</time>
      </trkpt>
      <trkpt lat="45.73046" lon="5.79989">
        <ele>400</ele>
        <time>2018-05-06T18:27:27+02:00</time>
      </trkpt>
      <trkpt lat="45.72965" lon="5.79869">
        <ele>405</ele>
        <time>2018-05-06T18:27:32+02:00</time>
      </trkpt>
      <trkpt lat="45.72878" lon="5.79761">
        <ele>409</ele>
        <time>2018-05-06T18:27:37+02:00</time>
      </trkpt>
      <trkpt lat="45.72876" lon="5.79652">
        <ele>407</ele>
        <time>2018-05-06T18:27:42+02:00</time>
      </trkpt>
      <trkpt lat="45.72879" lon="5.79517">
        <ele>408</ele>
        <time>2018-05-06T18:27:47+02:00</time>
      </trkpt>
      <trkpt lat="45.72888" lon="5.7941">
        <ele>409</ele>
        <time>2018-05-06T18:27:52+02:00</time>
      </trkpt>
      <trkpt lat="45.7289" lon="5.79302">
        <ele>408</ele>
        <time>2018-05-06T18:27:57+02:00</time>
      </trkpt>
      <trkpt lat="45.72918" lon="5.79257">
        <ele>407</ele>
        <time>2018-05-06T18:28:02+02:00</time>
      </trkpt>
      <trkpt lat="45.7292" lon="5.79202">
        <ele>406</ele>
        <time>2018-05-06T18:28:07+02:00</time>
      </trkpt>
      <trkpt lat="45.72945" lon="5.7915">
        <ele>402</ele>
        <time>2018-05-06T18:28:12+02:00</time>
      </trkpt>
      <trkpt lat="45.72962" lon="5.79112">
        <ele>400</ele>
        <time>2018-05-06T18:28:17+02:00</time>
      </trkpt>
      <trkpt lat="45.72983" lon="5.79043">
        <ele>399</ele>
        <time>2018-05-06T18:28:22+02:00</time>
      </trkpt>
      <trkpt lat="45.7299" lon="5.78993">
        <ele>399</ele>
        <time>2018-05-06T18:28:27+02:00</time>
      </trkpt>
      <trkpt lat="45.72983" lon="5.78961">
        <ele>402</ele>
        <time>2018-05-06T18:28:32+02:00</time>
      </trkpt>
      <trkpt lat="45.72978" lon="5.78901">
        <ele>406</ele>
        <time>2018-05-06T18:28:37+02:00</time>
      </trkpt>
      <trkpt lat="45.72981" lon="5.78779">
        <ele>416</ele>
        <time>2018-05-06T18:28:42+02:00</time>
      </trkpt>
      <trkpt lat="45.72962" lon="5.7874">
        <ele>424</ele>
        <time>2018-05-06T18:28:47+02:00</time>
      </trkpt>
      <trkpt lat="45.72932" lon="5.78697">
        <ele>435</ele>
        <time>2018-05-06T18:28:52+02:00</time>
      </trkpt>
      <trkpt lat="45.72923" lon="5.78644">
        <ele>437</ele>
        <time>2018-05-06T18:28:57+02:00</time>
      </trkpt>
      <trkpt lat="45.72895" lon="5.78617">
        <ele>418</ele>
        <time>2018-05-06T18:29:02+02:00</time>
      </trkpt>
      <trkpt lat="45.72922" lon="5.7858">
        <ele>428</ele>
        <time>2018-05-06T18:29:07+02:00</time>
      </trkpt>
      <trkpt lat="45.72942" lon="5.78549">
        <ele>415</ele>
        <time>2018-05-06T18:29:12+02:00</time>
      </trkpt>
      <trkpt lat="45.72986" lon="5.78516">
        <ele>418</ele>
        <time>2018-05-06T18:29:17+02:00</time>
      </trkpt>
      <trkpt lat="45.73" lon="5.7849">
        <ele>415</ele>
        <time>2018-05-06T18:29:22+02:00</time>
      </trkpt>
      <trkpt lat="45.73012" lon="5.78481">
        <ele>411</ele>
        <time>2018-05-06T18:29:27+02:00</time>
      </trkpt>
      <trkpt lat="45.73048" lon="5.78472">
        <ele>413</ele>
        <time>2018-05-06T18:29:32+02:00</time>
      </trkpt>
      <trkpt lat="45.73071" lon="5.78471">
        <ele>417</ele>
        <time>2018-05-06T18:29:37+02:00</time>
      </trkpt>
      <trkpt lat="45.73094" lon="5.78466">
        <ele>416</ele>
        <time>2018-05-06T18:29:42+02:00</time>
      </trkpt>
      <trkpt lat="45.73116" lon="5.78468">
        <ele>413</ele>
        <time>2018-05-06T18:29:47+02:00</time>
      </trkpt>
      <trkpt lat="45.73136" lon="5.78448">
        <ele>404</ele>
        <time>2018-05-06T18:29:52+02:00</time>
      </trkpt>
      <trkpt lat="45.73153" lon="5.78436">
        <ele>400</ele>
        <time>2018-05-06T18:29:57+02:00</time>
      </trkpt>
      <trkpt lat="45.73175" lon="5.78412">
        <ele>390</ele>
        <time>2018-05-06T18:30:02+02:00</time>
      </trkpt>
      <trkpt lat="45.73201" lon="5.78418">
        <ele>384</ele>
        <time>2018-05-06T18:30:07+02:00</time>
      </trkpt>
      <trkpt lat="45.73222" lon="5.78429">
        <ele>379</ele>
        <time>2018-05-06T18:30:12+02:00</time>
      </trkpt>
      <trkpt lat="45.73211" lon="5.78399">
        <ele>370</ele>
        <time>2018-05-06T18:30:17+02:00</time>
      </trkpt>
      <trkpt lat="45.73229" lon="5.78391">
        <ele>361</ele>
        <time>2018-05-06T18:30:22+02:00</time>
      </trkpt>
      <trkpt lat="45.73219" lon="5.78371">
        <ele>354</ele>
        <time>2018-05-06T18:30:27+02:00</time>
      </trkpt>
      <trkpt lat="45.73235" lon="5.7835">
        <ele>340</ele>
        <time>2018-05-06T18:30:32+02:00</time>
      </trkpt>
      <trkpt lat="45.73213" lon="5.78311">
        <ele>322</ele>
        <time>2018-05-06T18:30:37+02:00</time>
      </trkpt>
      <trkpt lat="45.73246" lon="5.78296">
        <ele>311</ele>
        <time>2018-05-06T18:30:42+02:00</time>
      </trkpt>
      <trkpt lat="45.73225" lon="5.78262">
        <ele>293</ele>
        <time>2018-05-06T18:30:47+02:00</time>
      </trkpt>
      <trkpt lat="45.73256" lon="5.7824">
        <ele>283</ele>
        <time>2018-05-06T18:30:52+02:00</time>
      </trkpt>
      <trkpt lat="45.73234" lon="5.78215">
        <ele>270</ele>
        <time>2018-05-06T18:30:57+02:00</time>
      </trkpt>
      <trkpt lat="45.73217" lon="5.782">
        <ele>263</ele>
        <time>2018-05-06T18:31:02+02:00</time>
      </trkpt>
      <trkpt lat="45.7324" lon="5.78178">
        <ele>253</ele>
        <time>2018-05-06T18:31:07+02:00</time>
      </trkpt>
      <trkpt lat="45.73255" lon="5.78172">
        <ele>250</ele>
        <time>2018-05-06T18:31:12+02:00</time>
      </trkpt>
      <trkpt lat="45.73241" lon="5.78133">
        <ele>240</ele>
        <time>2018-05-06T18:31:17+02:00</time>
      </trkpt>
      <trkpt lat="45.73235" lon="5.78115">
        <ele>236</ele>
        <time>2018-05-06T18:31:22+02:00</time>
      </trkpt>
      <trkpt lat="45.73251" lon="5.78099">
        <ele>232</ele>
        <time>2018-05-06T18:31:27+02:00</time>
      </trkpt>
      <trkpt lat="45.73339" lon="5.78099">
        <ele>239</ele>
        <time>2018-05-06T18:31:32+02:00</time>
      </trkpt>
      <trkpt lat="45.73449" lon="5.7806">
        <ele>235</ele>
        <time>2018-05-06T18:31:37+02:00</time>
      </trkpt>
      <trkpt lat="45.73461" lon="5.77952">
        <ele>231</ele>
        <time>2018-05-06T18:31:42+02:00</time>
      </trkpt>
      <trkpt lat="45.7346" lon="5.77865">
        <ele>228</ele>
        <time>2018-05-06T18:31:47+02:00</time>
      </trkpt>
      <trkpt lat="45.73495" lon="5.77776">
        <ele>227</ele>
        <time>2018-05-06T18:31:52+02:00</time>
      </trkpt>
      <trkpt lat="45.73523" lon="5.777">
        <ele>226</ele>
        <time>2018-05-06T18:31:57+02:00</time>
      </trkpt>
      <trkpt lat="45.7355" lon="5.7761">
        <ele>226</ele>
        <time>2018-05-06T18:32:02+02:00</time>
      </trkpt>
      <trkpt lat="45.73586" lon="5.77544">
        <ele>225</ele>
        <time>2018-05-06T18:32:07+02:00</time>
      </trkpt>
      <trkpt lat="45.73647" lon="5.77447">
        <ele>226</ele>
        <time>2018-05-06T18:32:12+02:00</time>
      </trkpt>
      <trkpt lat="45.73664" lon="5.77415">
        <ele>226</ele>
        <time>2018-05-06T18:32:17+02:00</time>
      </trkpt>
      <trkpt lat="45.73678" lon="5.77392">
        <ele>227</ele>
        <time>2018-05-06T18:32:22+02:00</time>
      </trkpt>
      <trkpt lat="45.73697" lon="5.77364">
        <ele>227</ele>
        <time>2018-05-06T18:32:27+02:00</time>
      </trkpt>
      <trkpt lat="45.73714" lon="5.77334">
        <ele>228</ele>
        <time>2018-05-06T18:32:32+02:00</time>
      </trkpt>
      <trkpt lat="45.73724" lon="5.77286">
        <ele>228</ele>
        <time>2018-05-06T18:32:37+02:00</time>
      </trkpt>
      <trkpt lat="45.73767" lon="5.77238">
        <ele>228</ele>
        <time>2018-05-06T18:32:42+02:00</time>
      </trkpt>
      <trkpt lat="45.73788" lon="5.77225">
        <ele>227</ele>
        <time>2018-05-06T18:32:47+02:00</time>
      </trkpt>
      <trkpt lat="45.73816" lon="5.77216">
        <ele>227</ele>
        <time>2018-05-06T18:32:52+02:00</time>
      </trkpt>
      <trkpt lat="45.73832" lon="5.77196">
        <ele>227</ele>
        <time>2018-05-06T18:32:57+02:00</time>
      </trkpt>
      <trkpt lat="45.73839" lon="5.77167">
        <ele>228</ele>
        <time>2018-05-06T18:33:02+02:00</time>
      </trkpt>
      <trkpt lat="45.73869" lon="5.77166">
        <ele>226</ele>
        <time>2018-05-06T18:33:07+02:00</time>
      </trkpt>
      <trkpt lat="45.73894" lon="5.77168">
        <ele>225</ele>
        <time>2018-05-06T18:33:12+02:00</time>
      </trkpt>
      <trkpt lat="45.7393" lon="5.77175">
        <ele>225</ele>
        <time>2018-05-06T18:33:17+02:00</time>
      </trkpt>
      <trkpt lat="45.73956" lon="5.77209">
        <ele>226</ele>
        <time>2018-05-06T18:33:22+02:00</time>
      </trkpt>
      <trkpt lat="45.74003" lon="5.77266">
        <ele>229</ele>
        <time>2018-05-06T18:33:27+02:00</time>
      </trkpt>
      <trkpt lat="45.74045" lon="5.77303">
        <ele>229</ele>
        <time>2018-05-06T18:33:32+02:00</time>
      </trkpt>
      <trkpt lat="45.74149" lon="5.77426">
        <ele>231</ele>
        <time>2018-05-06T18:33:37+02:00</time>
      </trkpt>
      <trkpt lat="45.74188" lon="5.77503">
        <ele>231</ele>
        <time>2018-05-06T18:33:42+02:00</time>
      </trkpt>
      <trkpt lat="45.7421" lon="5.77606">
        <ele>229</ele>
        <time>2018-05-06T18:33:47+02:00</time>
      </trkpt>
      <trkpt lat="45.74215" lon="5.77681">
        <ele>230</ele>
        <time>2018-05-06T18:33:52+02:00</time>
      </trkpt>
      <trkpt lat="45.74224" lon="5.77755">
        <ele>229</ele>
        <time>2018-05-06T18:33:57+02:00</time>
      </trkpt>
      <trkpt lat="45.74222" lon="5.7783">
        <ele>229</ele>
        <time>2018-05-06T18:34:02+02:00</time>
      </trkpt>
      <trkpt lat="45.74218" lon="5.77888">
        <ele>230</ele>
        <time>2018-05-06T18:34:07+02:00</time>
      </trkpt>
      <trkpt lat="45.74208" lon="5.7795">
        <ele>230</ele>
        <time>2018-05-06T18:34:12+02:00</time>
      </trkpt>
      <trkpt lat="45.74179" lon="5.78064">
        <ele>229</ele>
        <time>2018-05-06T18:34:17+02:00</time>
      </trkpt>
      <trkpt lat="45.74171" lon="5.78081">
        <ele>230</ele>
        <time>2018-05-06T18:34:22+02:00</time>
      </trkpt>
      <trkpt lat="45.74141" lon="5.7811">
        <ele>231</ele>
        <time>2018-05-06T18:34:27+02:00</time>
      </trkpt>
      <trkpt lat="45.74123" lon="5.78165">
        <ele>232</ele>
        <time>2018-05-06T18:34:32+02:00</time>
      </trkpt>
      <trkpt lat="45.74119" lon="5.78188">
        <ele>231</ele>
        <time>2018-05-06T18:34:37+02:00</time>
      </trkpt>
      <trkpt lat="45.74114" lon="5.78216">
        <ele>231</ele>
        <time>2018-05-06T18:34:42+02:00</time>
      </trkpt>
      <trkpt lat="45.74114" lon="5.78242">
        <ele>231</ele>
        <time>2018-05-06T18:34:47+02:00</time>
      </trkpt>
      <trkpt lat="45.74131" lon="5.7829">
        <ele>230</ele>
        <time>2018-05-06T18:34:52+02:00</time>
      </trkpt>
      <trkpt lat="45.7415" lon="5.78314">
        <ele>229</ele>
        <time>2018-05-06T18:34:57+02:00</time>
      </trkpt>
      <trkpt lat="45.74258" lon="5.78406">
        <ele>227</ele>
        <time>2018-05-06T18:35:02+02:00</time>
      </trkpt>
      <trkpt lat="45.74327" lon="5.78432">
        <ele>226</ele>
        <time>2018-05-06T18:35:07+02:00</time>
      </trkpt>
      <trkpt lat="45.74378" lon="5.78458">
        <ele>226</ele>
        <time>2018-05-06T18:35:12+02:00</time>
      </trkpt>
      <trkpt lat="45.74439" lon="5.78482">
        <ele>226</ele>
        <time>2018-05-06T18:35:17+02:00</time>
      </trkpt>
      <trkpt lat="45.74511" lon="5.78556">
        <ele>229</ele>
        <time>2018-05-06T18:35:22+02:00</time>
      </trkpt>
      <trkpt lat="45.74596" lon="5.78595">
        <ele>229</ele>
        <time>2018-05-06T18:35:27+02:00</time>
      </trkpt>
      <trkpt lat="45.74617" lon="5.78595">
        <ele>229</ele>
        <time>2018-05-06T18:35:32+02:00</time>
      </trkpt>
      <trkpt lat="45.74638" lon="5.78593">
        <ele>229</ele>
        <time>2018-05-06T18:35:37+02:00</time>
      </trkpt>
      <trkpt lat="45.747" lon="5.78553">
        <ele>228</ele>
        <time>2018-05-06T18:35:42+02:00</time>
      </trkpt>
      <trkpt lat="45.74747" lon="5.78546">
        <ele>227</ele>
        <time>2018-05-06T18:35:47+02:00</time>
      </trkpt>
      <trkpt lat="45.74789" lon="5.78526">
        <ele>227</ele>
        <time>2018-05-06T18:35:52+02:00</time>
      </trkpt>
      <trkpt lat="45.74814" lon="5.78533">
        <ele>228</ele>
        <time>2018-05-06T18:35:57+02:00</time>
      </trkpt>
      <trkpt lat="45.74851" lon="5.785">
        <ele>228</ele>
        <time>2018-05-06T18:36:02+02:00</time>
      </trkpt>
      <trkpt lat="45.74868" lon="5.78491">
        <ele>228</ele>
        <time>2018-05-06T18:36:07+02:00</time>
      </trkpt>
      <trkpt lat="45.74913" lon="5.78483">
        <ele>228</ele>
        <time>2018-05-06T18:36:12+02:00</time>
      </trkpt>
      <trkpt lat="45.74948" lon="5.78482">
        <ele>227</ele>
        <time>2018-05-06T18:36:17+02:00</time>
      </trkpt>
      <trkpt lat="45.75019" lon="5.78488">
        <ele>226</ele>
        <time>2018-05-06T18:36:22+02:00</time>
      </trkpt>
      <trkpt lat="45.75139" lon="5.78488">
        <ele>227</ele>
        <time>2018-05-06T18:36:27+02:00</time>
      </trkpt>
      <trkpt lat="45.75247" lon="5.78479">
        <ele>228</ele>
        <time>2018-05-06T18:36:32+02:00</time>
      </trkpt>
      <trkpt lat="45.75341" lon="5.78484">
        <ele>230</ele>
        <time>2018-05-06T18:36:37+02:00</time>
      </trkpt>
      <trkpt lat="45.75363" lon="5.78538">
        <ele>232</ele>
        <time>2018-05-06T18:36:42+02:00</time>
      </trkpt>
      <trkpt lat="45.75363" lon="5.7857">
        <ele>233</ele>
        <time>2018-05-06T18:36:47+02:00</time>
      </trkpt>
      <trkpt lat="45.75353" lon="5.78601">
        <ele>233</ele>
        <time>2018-05-06T18:36:52+02:00</time>
      </trkpt>
      <trkpt lat="45.75332" lon="5.78626">
        <ele>233</ele>
        <time>2018-05-06T18:36:57+02:00</time>
      </trkpt>
      <trkpt lat="45.75304" lon="5.78659">
        <ele>233</ele>
        <time>2018-05-06T18:37:02+02:00</time>
      </trkpt>
      <trkpt lat="45.75306" lon="5.78717">
        <ele>235</ele>
        <time>2018-05-06T18:37:07+02:00</time>
      </trkpt>
      <trkpt lat="45.75312" lon="5.78742">
        <ele>236</ele>
        <time>2018-05-06T18:37:12+02:00</time>
      </trkpt>
      <trkpt lat="45.75329" lon="5.78777">
        <ele>240</ele>
        <time>2018-05-06T18:37:17+02:00</time>
      </trkpt>
      <trkpt lat="45.75327" lon="5.78799">
        <ele>242</ele>
        <time>2018-05-06T18:37:22+02:00</time>
      </trkpt>
      <trkpt lat="45.75308" lon="5.78835">
        <ele>244</ele>
        <time>2018-05-06T18:37:27+02:00</time>
      </trkpt>
      <trkpt lat="45.7528" lon="5.78873">
        <ele>247</ele>
        <time>2018-05-06T18:37:32+02:00</time>
      </trkpt>
      <trkpt lat="45.75274" lon="5.78852">
        <ele>243</ele>
        <time>2018-05-06T18:37:37+02:00</time>
      </trkpt>
    </trkseg>
  </trk>
</gpx>